Time;durP1;ratioP1;P1;durP2;ratioP2;P2;SDS_P1;SDS_P2;PMS_P1;PMS_P2;Temp;Humidity;BMP_temperature;BMP_pressure;BME280_temperature;BME280_humidity;BME280_pressure;Samples;Min_cycle;Max_cycle;Signal;HPM_P1;HPM_P2
2023/05/26 00:01:31;;;;;;;19.20;3.53;;;10.10;99.90;;;;;;4905888;29;20063;-35
2023/05/26 00:03:57;;;;;;;14.35;3.28;;;10.10;99.90;;;;;;4900306;29;20067;-37
2023/05/26 00:06:23;;;;;;;12.38;2.55;;;10.00;99.90;;;;;;4908031;29;20056;-37
2023/05/26 00:08:49;;;;;;;18.13;3.63;;;10.00;99.90;;;;;;4910969;29;20056;-37
2023/05/26 00:11:15;;;;;;;19.00;4.25;;;10.00;99.90;;;;;;4905714;29;20111;-35
2023/05/26 00:13:42;;;;;;;17.77;2.60;;;10.00;99.90;;;;;;4910038;29;20059;-35
2023/05/26 00:16:09;;;;;;;14.40;2.80;;;10.00;99.90;;;;;;4905689;29;20562;-37
2023/05/26 00:18:34;;;;;;;17.25;2.25;;;10.00;99.90;;;;;;4908020;29;20052;-37
2023/05/26 00:21:03;;;;;;;10.88;2.40;;;10.00;99.90;;;;;;4904491;29;20063;-36
2023/05/26 00:23:29;;;;;;;13.38;2.22;;;9.90;99.90;;;;;;4894776;29;20063;-35
2023/05/26 00:25:54;;;;;;;17.77;3.28;;;9.90;99.90;;;;;;4906283;29;20048;-36
2023/05/26 00:28:20;;;;;;;16.95;2.63;;;9.90;99.90;;;;;;4906255;29;20056;-36
2023/05/26 00:30:46;;;;;;;15.00;2.25;;;9.80;99.90;;;;;;4909128;29;20460;-36
2023/05/26 00:33:11;;;;;;;13.00;1.88;;;9.80;99.90;;;;;;4905027;29;20048;-35
2023/05/26 00:35:37;;;;;;;14.63;2.30;;;9.80;99.90;;;;;;4905738;29;20419;-37
2023/05/26 00:38:03;;;;;;;11.57;2.55;;;9.70;99.90;;;;;;4907655;29;20525;-37
2023/05/26 00:40:29;;;;;;;14.55;2.53;;;9.70;99.90;;;;;;4906110;29;20103;-36
2023/05/26 00:42:55;;;;;;;12.35;3.03;;;9.70;99.90;;;;;;4906430;29;20644;-36
2023/05/26 00:45:20;;;;;;;9.75;1.90;;;9.70;99.90;;;;;;4909942;29;20047;-36
2023/05/26 00:47:46;;;;;;;7.72;1.90;;;9.60;99.90;;;;;;4909851;29;20438;-36
2023/05/26 00:50:12;;;;;;;11.20;2.28;;;9.60;99.90;;;;;;4908242;29;20052;-36
2023/05/26 00:52:38;;;;;;;12.40;1.92;;;9.60;99.90;;;;;;4907029;29;20075;-36
2023/05/26 00:55:06;;;;;;;12.70;2.25;;;9.50;99.90;;;;;;4890535;29;20057;-36
2023/05/26 00:57:33;;;;;;;11.65;2.47;;;9.50;99.90;;;;;;4908084;29;20060;-36
2023/05/26 00:59:59;;;;;;;8.07;1.58;;;9.50;99.90;;;;;;4905336;29;20094;-35
2023/05/26 01:02:26;;;;;;;14.50;2.45;;;9.50;99.90;;;;;;4904703;29;20056;-36
2023/05/26 01:04:53;;;;;;;12.05;2.15;;;9.40;99.90;;;;;;4885673;29;20055;-35
2023/05/26 01:07:20;;;;;;;16.55;3.22;;;9.40;99.90;;;;;;4905865;29;20052;-35
2023/05/26 01:09:47;;;;;;;13.10;1.70;;;9.40;99.90;;;;;;4907391;29;20056;-35
2023/05/26 01:12:26;;;;;;;17.88;2.20;;;9.30;99.90;;;;;;4904865;29;20060;-36
2023/05/26 01:15:15;;;;;;;14.13;2.22;;;9.30;99.90;;;;;;4904268;29;20099;-35
2023/05/26 01:18:10;;;;;;;16.92;2.50;;;9.20;99.90;;;;;;4904264;29;20060;-35
2023/05/26 01:20:41;;;;;;;14.20;2.03;;;9.20;99.90;;;;;;4905661;29;20092;-36
2023/05/26 01:23:06;;;;;;;14.20;2.53;;;9.10;99.90;;;;;;4899204;29;20545;-36
2023/05/26 01:26:14;;;;;;;11.73;2.00;;;9.10;99.90;;;;;;4909036;29;20183;-35
2023/05/26 01:28:42;;;;;;;14.50;2.33;;;9.00;99.90;;;;;;4910162;29;20074;-35
2023/05/26 01:31:08;;;;;;;11.35;1.80;;;9.00;99.90;;;;;;4905765;29;21575;-35
2023/05/26 01:33:35;;;;;;;16.83;3.45;;;9.00;99.90;;;;;;4909866;29;20091;-37
2023/05/26 01:36:01;;;;;;;10.50;1.92;;;8.90;99.90;;;;;;4910089;29;20059;-37
2023/05/26 01:38:27;;;;;;;10.68;2.58;;;8.90;99.90;;;;;;4908431;29;20052;-36
2023/05/26 01:41:18;;;;;;;14.18;3.30;;;8.90;99.90;;;;;;4911749;29;20060;-36
2023/05/26 01:44:20;;;;;;;15.27;2.35;;;8.90;99.90;;;;;;4908919;29;20549;-35
2023/05/26 01:46:51;;;;;;;12.63;2.15;;;8.90;99.90;;;;;;4911349;29;20056;-35
2023/05/26 01:49:20;;;;;;;14.95;2.20;;;8.80;99.90;;;;;;4912288;29;20064;-36
2023/05/26 01:51:51;;;;;;;12.25;2.53;;;8.80;99.90;;;;;;4910713;29;20094;-35
2023/05/26 01:54:20;;;;;;;20.15;2.42;;;8.80;99.90;;;;;;4910907;29;20074;-36
2023/05/26 01:56:46;;;;;;;14.35;2.17;;;8.80;99.90;;;;;;4907656;29;20071;-36
2023/05/26 01:59:12;;;;;;;20.05;2.90;;;8.80;99.90;;;;;;4911376;29;20067;-36
2023/05/26 02:01:38;;;;;;;13.02;3.45;;;8.70;99.90;;;;;;4908975;29;20076;-35
2023/05/26 02:04:04;;;;;;;11.65;2.83;;;8.70;99.90;;;;;;4908350;29;20462;-35
2023/05/26 02:06:29;;;;;;;13.90;2.65;;;8.70;99.90;;;;;;4908661;29;20150;-35
2023/05/26 02:08:55;;;;;;;14.68;2.60;;;8.70;99.90;;;;;;4912850;29;20056;-35
2023/05/26 02:11:21;;;;;;;16.40;3.33;;;8.60;99.90;;;;;;4905541;29;20067;-35
2023/05/26 02:13:48;;;;;;;16.08;2.95;;;8.60;99.90;;;;;;4909595;29;20060;-35
2023/05/26 02:16:14;;;;;;;11.90;2.40;;;8.60;99.90;;;;;;4906691;29;20578;-35
2023/05/26 02:18:40;;;;;;;16.40;4.57;;;8.60;99.90;;;;;;4905434;29;20070;-35
2023/05/26 02:21:05;;;;;;;19.50;3.15;;;8.60;99.90;;;;;;4904429;29;20087;-36
2023/05/26 02:23:31;;;;;;;14.13;2.72;;;8.60;99.90;;;;;;4907750;29;20076;-36
2023/05/26 02:25:57;;;;;;;13.43;4.05;;;8.50;99.90;;;;;;4915438;29;20097;-36
2023/05/26 02:28:22;;;;;;;15.55;2.80;;;8.50;99.90;;;;;;4907021;29;20056;-36
2023/05/26 02:30:48;;;;;;;13.15;2.15;;;8.50;99.90;;;;;;4907110;29;20064;-36
2023/05/26 02:33:14;;;;;;;13.43;2.50;;;8.50;99.90;;;;;;4906045;29;20055;-35
2023/05/26 02:35:39;;;;;;;10.77;2.40;;;8.50;99.90;;;;;;4907591;29;20066;-36
2023/05/26 02:38:05;;;;;;;20.90;2.80;;;8.50;99.90;;;;;;4909484;29;20136;-36
2023/05/26 02:40:30;;;;;;;12.85;2.38;;;8.40;99.90;;;;;;4911071;29;20059;-35
2023/05/26 02:42:56;;;;;;;14.50;2.42;;;8.40;99.90;;;;;;4909367;29;20111;-36
2023/05/26 02:45:22;;;;;;;14.75;2.33;;;8.40;99.90;;;;;;4901117;29;20402;-36
2023/05/26 02:47:47;;;;;;;10.52;2.92;;;8.40;99.90;;;;;;4902483;29;23553;-36
2023/05/26 02:50:13;;;;;;;12.43;2.15;;;8.40;99.90;;;;;;4901095;29;21367;-36
2023/05/26 02:52:39;;;;;;;17.90;3.42;;;8.30;99.90;;;;;;4902794;29;20063;-35
2023/05/26 02:55:10;;;;;;;13.65;2.92;;;8.30;99.90;;;;;;4901800;29;20048;-36
2023/05/26 02:57:35;;;;;;;11.98;2.30;;;8.30;99.90;;;;;;4904773;29;20075;-35
2023/05/26 03:00:01;;;;;;;14.52;2.83;;;8.30;99.90;;;;;;4913724;29;20071;-35
2023/05/26 03:02:27;;;;;;;11.30;2.10;;;8.30;99.90;;;;;;4907766;29;20383;-37
2023/05/26 03:04:53;;;;;;;12.35;1.70;;;8.30;99.90;;;;;;4908353;29;20052;-35
2023/05/26 03:07:18;;;;;;;15.43;2.30;;;8.30;99.90;;;;;;4908250;29;20143;-35
2023/05/26 03:09:44;;;;;;;12.48;2.95;;;8.30;99.90;;;;;;4908461;29;20044;-35
2023/05/26 03:12:12;;;;;;;10.30;2.20;;;8.20;99.90;;;;;;4910987;29;20458;-37
2023/05/26 03:14:38;;;;;;;22.63;2.95;;;8.20;99.90;;;;;;4892998;29;20075;-37
2023/05/26 03:17:03;;;;;;;16.73;2.75;;;8.20;99.90;;;;;;4906086;29;20571;-37
2023/05/26 03:19:29;;;;;;;20.50;1.80;;;8.20;99.90;;;;;;4907519;29;20056;-36
2023/05/26 03:21:55;;;;;;;13.25;2.40;;;8.10;99.90;;;;;;4907878;29;20143;-36
2023/05/26 03:24:21;;;;;;;12.40;2.42;;;8.10;99.90;;;;;;4910523;29;20087;-36
2023/05/26 03:26:46;;;;;;;20.67;2.38;;;8.10;99.90;;;;;;4907908;29;20122;-36
2023/05/26 03:29:12;;;;;;;12.10;2.22;;;8.10;99.90;;;;;;4908427;29;20048;-36
2023/05/26 03:31:38;;;;;;;16.30;2.95;;;8.00;99.90;;;;;;4901968;29;20091;-36
2023/05/26 03:34:03;;;;;;;15.93;2.45;;;8.00;99.90;;;;;;4909114;29;20056;-36
2023/05/26 03:36:29;;;;;;;13.43;2.20;;;8.00;99.90;;;;;;4908091;29;20048;-36
2023/05/26 03:38:55;;;;;;;14.40;2.15;;;8.00;99.90;;;;;;4908826;29;20413;-37
2023/05/26 03:41:20;;;;;;;10.07;1.63;;;8.10;99.90;;;;;;4902146;29;20200;-36
2023/05/26 03:43:46;;;;;;;14.15;2.58;;;8.10;99.90;;;;;;4908218;29;20171;-37
2023/05/26 03:46:11;;;;;;;9.82;2.10;;;8.10;99.90;;;;;;4909125;29;20178;-37
2023/05/26 03:48:37;;;;;;;11.40;2.13;;;8.10;99.90;;;;;;4903565;29;20068;-36
2023/05/26 03:51:03;;;;;;;14.55;3.10;;;8.10;99.90;;;;;;4909623;29;20060;-36
2023/05/26 03:53:28;;;;;;;13.30;2.97;;;8.10;99.90;;;;;;4913182;29;20091;-36
2023/05/26 03:55:54;;;;;;;11.23;2.60;;;8.10;99.90;;;;;;4907011;29;20139;-36
2023/05/26 03:58:20;;;;;;;13.15;2.33;;;8.20;99.90;;;;;;4907845;29;20077;-37
2023/05/26 04:00:46;;;;;;;12.00;2.10;;;8.10;99.90;;;;;;4908561;29;20430;-36
2023/05/26 04:03:12;;;;;;;19.02;2.40;;;8.20;99.90;;;;;;4910756;29;20048;-36
2023/05/26 04:05:38;;;;;;;13.50;2.42;;;8.20;99.90;;;;;;4901256;29;20098;-36
2023/05/26 04:08:04;;;;;;;11.00;2.20;;;8.20;99.90;;;;;;4907624;29;20061;-37
2023/05/26 04:10:29;;;;;;;9.98;2.17;;;8.20;99.90;;;;;;4905539;29;20112;-36
2023/05/26 04:12:55;;;;;;;15.23;2.60;;;8.20;99.90;;;;;;4910118;29;20517;-37
2023/05/26 04:15:21;;;;;;;19.23;2.60;;;8.20;99.90;;;;;;4907581;29;20043;-35
2023/05/26 04:17:46;;;;;;;14.15;2.25;;;8.20;99.90;;;;;;4906722;29;20088;-38
2023/05/26 04:20:12;;;;;;;15.05;2.03;;;8.20;99.90;;;;;;4907971;29;20044;-35
2023/05/26 04:22:39;;;;;;;19.48;2.67;;;8.20;99.90;;;;;;4895517;29;20044;-35
2023/05/26 04:25:07;;;;;;;12.52;2.20;;;8.30;99.90;;;;;;4908037;29;20058;-37
2023/05/26 04:27:35;;;;;;;16.02;2.45;;;8.30;99.90;;;;;;4905154;29;20044;-36
2023/05/26 04:30:02;;;;;;;9.70;2.15;;;8.30;99.90;;;;;;4912604;29;20060;-36
2023/05/26 04:32:28;;;;;;;15.18;2.15;;;8.40;99.90;;;;;;4906440;29;20186;-35
2023/05/26 04:34:55;;;;;;;12.93;2.45;;;8.40;99.90;;;;;;4904233;29;20060;-36
2023/05/26 04:37:20;;;;;;;13.93;2.25;;;8.40;99.90;;;;;;4907814;29;20049;-35
2023/05/26 04:39:46;;;;;;;11.30;2.30;;;8.50;99.90;;;;;;4910069;29;20056;-35
2023/05/26 04:42:12;;;;;;;15.63;2.30;;;8.50;99.90;;;;;;4905364;29;20414;-36
2023/05/26 04:44:40;;;;;;;9.27;2.22;;;8.50;99.90;;;;;;4907135;29;20047;-36
2023/05/26 04:47:08;;;;;;;13.88;1.95;;;8.60;99.90;;;;;;4908240;29;20048;-37
2023/05/26 04:49:35;;;;;;;14.63;1.90;;;8.60;99.90;;;;;;4907364;29;20123;-35
2023/05/26 04:52:01;;;;;;;14.52;2.03;;;8.70;99.90;;;;;;4906239;29;20502;-37
2023/05/26 04:54:27;;;;;;;11.95;2.85;;;8.70;99.90;;;;;;4903710;29;20136;-37
2023/05/26 04:56:53;;;;;;;10.48;1.60;;;8.80;99.90;;;;;;4906129;29;20055;-35
2023/05/26 04:59:21;;;;;;;9.55;2.38;;;8.80;99.90;;;;;;4909547;29;20057;-35
2023/05/26 05:01:47;;;;;;;10.82;2.03;;;8.80;99.90;;;;;;4905758;29;20052;-35
2023/05/26 05:04:13;;;;;;;10.93;1.90;;;8.90;99.90;;;;;;4909337;29;20140;-36
2023/05/26 05:06:39;;;;;;;12.15;2.63;;;8.90;99.90;;;;;;4887422;29;20498;-35
2023/05/26 05:09:05;;;;;;;10.45;2.25;;;8.90;99.90;;;;;;4906805;29;20060;-37
2023/05/26 05:11:30;;;;;;;10.23;2.13;;;9.00;99.90;;;;;;4907183;29;20498;-35
2023/05/26 05:13:56;;;;;;;10.90;2.20;;;9.00;99.90;;;;;;4902424;29;20447;-35
2023/05/26 05:16:22;;;;;;;16.45;2.00;;;9.00;99.90;;;;;;4900822;29;20067;-35
2023/05/26 05:18:47;;;;;;;15.32;3.33;;;9.00;99.90;;;;;;4905331;29;20090;-35
2023/05/26 05:21:13;;;;;;;9.20;2.38;;;9.10;99.90;;;;;;4902560;29;20060;-37
2023/05/26 05:23:39;;;;;;;12.60;1.45;;;9.10;99.90;;;;;;4904442;29;20060;-37
2023/05/26 05:26:04;;;;;;;12.18;1.98;;;9.10;99.90;;;;;;4904626;29;20411;-36
2023/05/26 05:28:30;;;;;;;15.27;2.22;;;9.10;99.90;;;;;;4907336;29;20134;-36
2023/05/26 05:30:56;;;;;;;16.02;2.22;;;9.20;99.90;;;;;;4902994;29;20052;-36
2023/05/26 05:33:21;;;;;;;9.25;1.63;;;9.20;99.90;;;;;;4908736;29;20103;-35
2023/05/26 05:35:47;;;;;;;16.00;1.83;;;9.30;99.90;;;;;;4905693;29;20056;-35
2023/05/26 05:38:13;;;;;;;16.83;2.63;;;9.40;99.90;;;;;;4904037;29;20064;-35
2023/05/26 05:40:38;;;;;;;6.60;2.65;;;9.40;99.90;;;;;;4907288;29;20053;-35
2023/05/26 05:43:04;;;;;;;9.43;1.70;;;9.50;99.90;;;;;;4897880;29;20546;-37
2023/05/26 05:45:30;;;;;;;11.52;1.77;;;9.60;99.90;;;;;;4893375;29;20415;-35
2023/05/26 05:47:56;;;;;;;13.82;2.08;;;9.70;99.90;;;;;;4905680;29;20056;-35
2023/05/26 05:50:22;;;;;;;11.25;2.05;;;9.80;99.90;;;;;;4905563;29;20066;-35
2023/05/26 05:52:47;;;;;;;13.77;1.92;;;9.90;99.90;;;;;;4903624;29;20083;-35
2023/05/26 05:55:13;;;;;;;14.23;2.38;;;9.90;99.90;;;;;;4904563;29;21094;-36
2023/05/26 05:57:39;;;;;;;14.52;2.53;;;10.10;99.90;;;;;;4905520;29;20131;-36
2023/05/26 06:00:05;;;;;;;9.43;1.88;;;10.10;99.90;;;;;;4888664;29;20056;-35
2023/05/26 06:02:31;;;;;;;14.60;2.35;;;10.20;99.90;;;;;;4893940;29;20064;-36
2023/05/26 06:04:57;;;;;;;14.40;2.75;;;10.30;99.90;;;;;;4895367;29;20161;-37
2023/05/26 06:07:22;;;;;;;15.27;2.53;;;10.40;99.90;;;;;;4902357;29;20143;-35
2023/05/26 06:09:48;;;;;;;11.30;1.88;;;10.50;99.90;;;;;;4906060;29;20055;-36
2023/05/26 06:12:14;;;;;;;14.52;2.85;;;10.60;99.90;;;;;;4908524;29;20491;-35
2023/05/26 06:14:39;;;;;;;15.02;2.03;;;10.60;99.90;;;;;;4911130;29;20927;-35
2023/05/26 06:17:05;;;;;;;10.85;1.95;;;10.70;99.90;;;;;;4911044;29;20122;-35
2023/05/26 06:19:31;;;;;;;8.50;1.63;;;10.80;99.90;;;;;;4913133;29;20059;-35
2023/05/26 06:21:57;;;;;;;15.15;2.15;;;10.80;99.90;;;;;;4911819;29;20371;-34
2023/05/26 06:24:22;;;;;;;14.52;1.65;;;10.90;99.90;;;;;;4913061;29;20060;-34
2023/05/26 06:26:48;;;;;;;15.38;1.83;;;11.00;99.90;;;;;;4912516;29;20597;-34
2023/05/26 06:29:16;;;;;;;8.73;1.50;;;11.10;99.90;;;;;;4906139;29;20055;-34
2023/05/26 06:31:42;;;;;;;10.18;2.25;;;11.20;99.90;;;;;;4901748;29;20742;-34
2023/05/26 06:34:08;;;;;;;13.43;2.25;;;11.30;99.90;;;;;;4890986;29;20040;-33
2023/05/26 06:36:33;;;;;;;9.65;2.08;;;11.30;99.90;;;;;;4912208;29;20059;-33
2023/05/26 06:38:59;;;;;;;13.02;2.78;;;11.40;99.90;;;;;;4916344;29;20131;-34
2023/05/26 06:41:26;;;;;;;14.82;2.33;;;11.50;99.90;;;;;;4912995;29;20083;-34
2023/05/26 06:43:52;;;;;;;13.88;1.92;;;11.60;99.90;;;;;;4911232;29;20490;-34
2023/05/26 06:46:18;;;;;;;15.02;2.53;;;11.70;99.90;;;;;;4908274;29;20067;-34
2023/05/26 06:48:44;;;;;;;18.25;2.17;;;11.70;99.90;;;;;;4904544;29;20089;-33
2023/05/26 06:51:10;;;;;;;18.15;2.30;;;11.70;99.90;;;;;;4906250;29;20507;-33
2023/05/26 06:53:37;;;;;;;12.05;2.38;;;11.80;99.90;;;;;;4903147;29;20048;-34
2023/05/26 06:56:04;;;;;;;14.93;2.58;;;11.90;99.90;;;;;;4904875;29;20052;-34
2023/05/26 06:58:29;;;;;;;15.60;2.45;;;12.00;99.90;;;;;;4910911;29;20059;-34
2023/05/26 07:01:00;;;;;;;12.30;2.05;;;12.10;99.90;;;;;;4888627;29;20418;-35
2023/05/26 07:03:27;;;;;;;14.90;2.10;;;12.20;99.90;;;;;;4914798;29;20062;-35
2023/05/26 07:05:54;;;;;;;15.23;2.83;;;12.30;99.90;;;;;;4904281;29;20059;-34
2023/05/26 07:08:20;;;;;;;18.38;2.58;;;12.30;99.90;;;;;;4911550;29;20051;-34
2023/05/26 07:10:45;;;;;;;13.95;1.80;;;12.40;99.90;;;;;;4908891;29;21315;-34
2023/05/26 07:13:11;;;;;;;12.93;2.63;;;12.50;99.90;;;;;;4910577;29;20052;-34
2023/05/26 07:15:37;;;;;;;13.80;2.53;;;12.60;99.90;;;;;;4905697;29;20498;-34
2023/05/26 07:18:02;;;;;;;7.85;2.00;;;12.70;99.90;;;;;;4912499;29;20454;-34
2023/05/26 07:20:28;;;;;;;14.70;2.58;;;12.80;99.90;;;;;;4895680;29;20075;-34
2023/05/26 07:22:53;;;;;;;11.85;2.00;;;12.90;99.90;;;;;;4887767;29;20049;-34
2023/05/26 07:25:19;;;;;;;12.75;1.70;;;12.90;99.90;;;;;;4879731;29;20373;-34
2023/05/26 07:27:45;;;;;;;11.65;2.00;;;12.80;99.90;;;;;;4885910;29;20382;-34
2023/05/26 07:30:11;;;;;;;10.48;2.20;;;12.80;99.90;;;;;;4874425;29;20053;-34
2023/05/26 07:32:37;;;;;;;11.32;2.15;;;12.80;99.90;;;;;;4874324;29;20139;-34
2023/05/26 07:35:03;;;;;;;9.88;2.20;;;12.80;99.90;;;;;;4887067;29;20406;-34
2023/05/26 07:37:28;;;;;;;16.75;2.97;;;12.70;99.90;;;;;;4889362;29;20094;-34
2023/05/26 07:39:55;;;;;;;13.13;1.98;;;12.80;99.90;;;;;;4893776;29;20049;-34
2023/05/26 07:42:21;;;;;;;10.60;1.95;;;12.80;99.90;;;;;;4889544;29;20051;-34
2023/05/26 07:44:47;;;;;;;17.30;2.45;;;12.90;99.90;;;;;;4891056;29;20048;-34
2023/05/26 07:47:13;;;;;;;11.85;2.40;;;13.10;99.90;;;;;;4888229;29;20060;-34
2023/05/26 07:49:38;;;;;;;13.25;2.20;;;13.10;99.90;;;;;;4897477;29;20187;-34
2023/05/26 07:52:04;;;;;;;11.10;2.10;;;13.20;99.90;;;;;;4882510;29;20620;-34
2023/05/26 07:54:30;;;;;;;8.27;2.10;;;13.20;99.90;;;;;;4888157;29;20063;-34
2023/05/26 07:56:55;;;;;;;10.73;1.75;;;13.40;99.90;;;;;;4891728;29;20068;-34
2023/05/26 07:59:21;;;;;;;13.20;2.25;;;13.50;99.90;;;;;;4891571;29;20061;-34
2023/05/26 08:01:47;;;;;;;11.73;2.35;;;13.50;99.90;;;;;;4887898;29;20098;-34
2023/05/26 08:04:12;;;;;;;16.30;2.55;;;13.40;99.90;;;;;;4881347;29;21208;-34
2023/05/26 08:06:38;;;;;;;10.00;2.58;;;13.40;99.90;;;;;;4890626;29;20068;-34
2023/05/26 08:09:04;;;;;;;13.73;2.42;;;13.30;99.90;;;;;;4891705;29;20051;-34
2023/05/26 08:11:29;;;;;;;12.63;1.90;;;13.20;99.90;;;;;;4891869;29;20080;-34
2023/05/26 08:13:55;;;;;;;11.70;1.60;;;13.10;99.90;;;;;;4890938;29;20051;-33
2023/05/26 08:16:21;;;;;;;10.68;2.05;;;13.10;99.90;;;;;;4886910;29;20503;-34
2023/05/26 08:18:46;;;;;;;11.07;2.30;;;13.30;99.90;;;;;;4889571;29;20164;-34
2023/05/26 08:21:12;;;;;;;11.60;2.25;;;13.50;99.90;;;;;;4887305;29;20662;-34
2023/05/26 08:23:38;;;;;;;13.85;2.25;;;13.60;99.90;;;;;;4899291;29;20578;-34
2023/05/26 08:26:05;;;;;;;6.78;1.27;;;13.80;99.90;;;;;;4906662;29;20056;-34
2023/05/26 08:28:30;;;;;;;15.18;2.30;;;14.10;99.90;;;;;;4904866;29;20111;-34
2023/05/26 08:30:56;;;;;;;11.43;2.10;;;14.30;99.90;;;;;;4910464;29;20057;-34
2023/05/26 08:33:22;;;;;;;8.23;1.90;;;14.50;99.90;;;;;;4904437;29;20047;-34
2023/05/26 08:35:47;;;;;;;8.70;1.90;;;14.60;99.90;;;;;;4908617;29;20132;-33
2023/05/26 08:38:13;;;;;;;15.45;2.40;;;14.70;99.90;;;;;;4904773;29;20058;-33
2023/05/26 08:40:38;;;;;;;13.40;2.58;;;14.80;99.90;;;;;;4903724;29;20160;-35
2023/05/26 08:43:07;;;;;;;9.50;2.42;;;14.90;99.90;;;;;;4906397;29;20088;-33
2023/05/26 08:45:34;;;;;;;10.95;2.00;;;14.90;99.90;;;;;;4912383;29;21714;-34
2023/05/26 08:48:01;;;;;;;9.93;2.00;;;14.90;99.90;;;;;;4902736;29;20040;-34
2023/05/26 08:50:30;;;;;;;15.27;2.25;;;14.80;99.90;;;;;;4902020;29;20406;-34
2023/05/26 08:52:57;;;;;;;10.27;1.77;;;14.80;99.90;;;;;;4904545;29;20588;-34
2023/05/26 08:55:22;;;;;;;11.02;2.03;;;15.00;99.90;;;;;;4905963;29;20117;-34
2023/05/26 08:57:49;;;;;;;10.25;1.88;;;15.10;99.90;;;;;;4903678;29;20060;-34
2023/05/26 09:00:16;;;;;;;8.80;1.48;;;15.20;99.90;;;;;;4905071;29;20473;-34
2023/05/26 09:02:42;;;;;;;10.90;2.03;;;15.40;99.90;;;;;;4907999;29;20063;-34
2023/05/26 09:05:08;;;;;;;9.77;1.55;;;15.50;99.90;;;;;;4899483;29;20052;-34
2023/05/26 09:07:34;;;;;;;5.80;1.20;;;15.60;99.90;;;;;;4900526;29;20401;-35
2023/05/26 09:10:21;;;;;;;9.75;1.95;;;15.70;99.90;;;;;;4898278;29;20040;-36
2023/05/26 09:12:47;;;;;;;10.98;2.05;;;15.80;99.90;;;;;;4904142;29;20064;-35
2023/05/26 09:15:19;;;;;;;10.80;2.63;;;15.80;99.90;;;;;;4903413;29;20135;-36
2023/05/26 09:17:46;;;;;;;10.25;1.77;;;16.00;99.90;;;;;;4908294;29;20056;-36
2023/05/26 09:20:12;;;;;;;7.45;1.35;;;16.00;99.90;;;;;;4901383;29;20150;-34
2023/05/26 09:22:38;;;;;;;8.38;1.50;;;16.10;99.90;;;;;;4893956;29;20068;-34
2023/05/26 09:25:04;;;;;;;5.57;1.10;;;16.10;99.90;;;;;;4885932;29;20116;-34
2023/05/26 09:27:30;;;;;;;8.13;1.25;;;16.20;99.90;;;;;;4881525;29;20044;-34
2023/05/26 09:30:03;;;;;;;5.93;1.23;;;16.20;99.90;;;;;;4875757;29;20554;-34
2023/05/26 09:32:30;;;;;;;8.07;1.38;;;16.20;99.90;;;;;;4880447;29;20051;-35
2023/05/26 09:35:05;;;;;;;6.93;1.45;;;16.30;99.90;;;;;;4880482;29;20071;-35
2023/05/26 09:37:32;;;;;;;7.18;1.15;;;16.40;99.90;;;;;;4879255;29;20045;-34
2023/05/26 09:40:12;;;;;;;8.05;1.50;;;16.40;99.90;;;;;;4891339;29;20056;-35
2023/05/26 09:42:45;;;;;;;9.52;1.63;;;16.50;99.90;;;;;;4887101;29;20522;-35
2023/05/26 09:45:11;;;;;;;8.43;1.05;;;16.60;99.90;;;;;;4890852;29;20075;-34
2023/05/26 09:47:37;;;;;;;7.60;1.48;;;16.70;99.90;;;;;;4888649;29;20083;-37
2023/05/26 09:50:06;;;;;;;11.48;1.30;;;16.60;99.90;;;;;;4891874;29;20064;-38
2023/05/26 09:52:33;;;;;;;11.05;1.50;;;16.70;99.90;;;;;;4889487;29;20406;-36
2023/05/26 09:54:59;;;;;;;9.93;1.67;;;16.90;99.90;;;;;;4889624;29;20419;-37
2023/05/26 09:57:27;;;;;;;7.20;1.23;;;16.90;99.90;;;;;;4888281;29;20053;-37
2023/05/26 09:59:55;;;;;;;7.95;1.23;;;17.00;99.90;;;;;;4884636;29;20048;-37
2023/05/26 10:02:23;;;;;;;7.88;1.33;;;17.20;99.90;;;;;;4885450;29;20044;-37
2023/05/26 10:04:50;;;;;;;7.00;1.38;;;17.20;99.90;;;;;;4881322;29;20549;-37
2023/05/26 10:07:18;;;;;;;11.80;1.63;;;17.20;99.90;;;;;;4887749;29;20063;-37
2023/05/26 10:09:48;;;;;;;6.25;1.33;;;17.20;99.90;;;;;;4886096;29;20066;-37
2023/05/26 10:12:16;;;;;;;9.38;1.92;;;17.20;99.90;;;;;;4893449;29;20487;-37
2023/05/26 10:14:42;;;;;;;9.52;1.27;;;17.20;99.90;;;;;;4876961;29;20070;-37
2023/05/26 10:17:08;;;;;;;6.80;1.20;;;17.30;99.90;;;;;;4896704;29;20088;-37
2023/05/26 10:19:34;;;;;;;10.43;1.20;;;17.40;99.90;;;;;;4890957;29;20507;-37
2023/05/26 10:22:11;;;;;;;9.90;1.33;;;17.50;99.90;;;;;;4899909;29;20780;-37
2023/05/26 10:24:53;;;;;;;10.02;1.35;;;17.70;99.90;;;;;;4909828;29;20423;-36
2023/05/26 10:27:31;;;;;;;6.97;1.55;;;17.90;99.90;;;;;;4911111;29;20100;-37
2023/05/26 10:30:08;;;;;;;7.07;1.50;;;17.80;99.90;;;;;;4909669;29;20620;-37
2023/05/26 10:32:49;;;;;;;7.07;1.77;;;17.80;99.90;;;;;;4914283;29;20083;-36
2023/05/26 10:35:29;;;;;;;9.18;1.65;;;17.80;99.90;;;;;;4913231;29;20059;-37
2023/05/26 10:38:01;;;;;;;8.07;1.25;;;17.90;99.90;;;;;;4911219;29;20090;-37
2023/05/26 10:40:28;;;;;;;5.45;1.15;;;18.00;99.90;;;;;;4914521;29;20044;-37
2023/05/26 10:43:24;;;;;;;7.80;1.92;;;18.10;99.90;;;;;;4911961;29;20072;-37
2023/05/26 10:45:58;;;;;;;7.47;1.08;;;18.20;99.90;;;;;;4909455;29;20059;-37
2023/05/26 10:48:40;;;;;;;7.93;1.50;;;18.10;99.90;;;;;;4908543;29;20048;-37
2023/05/26 10:51:06;;;;;;;4.45;1.27;;;18.10;99.90;;;;;;4892417;29;20052;-37
2023/05/26 10:53:45;;;;;;;6.85;1.13;;;18.20;99.90;;;;;;4910924;29;20058;-37
2023/05/26 10:56:13;;;;;;;7.43;1.42;;;18.30;99.90;;;;;;4915226;29;20095;-37
2023/05/26 10:58:45;;;;;;;7.90;1.33;;;18.40;99.90;;;;;;4911669;29;20629;-37
2023/05/26 11:01:12;;;;;;;;;;;18.40;99.90;;;;;;4912471;29;20052;-37
2023/05/26 11:03:43;;;;;;;9.13;1.27;;;18.50;99.90;;;;;;4915456;29;19930;-37
2023/05/26 11:06:10;;;;;;;6.38;1.17;;;18.50;99.90;;;;;;4906517;29;20111;-38
2023/05/26 11:08:46;;;;;;;5.60;1.23;;;18.50;99.90;;;;;;4909088;29;20072;-37
2023/05/26 11:11:27;;;;;;;8.10;1.85;;;18.60;99.90;;;;;;4909494;29;20056;-38
2023/05/26 11:14:02;;;;;;;7.90;1.30;;;18.80;99.90;;;;;;4914861;29;20589;-37
2023/05/26 11:16:27;;;;;;;5.80;1.80;;;19.10;99.90;;;;;;4912424;29;20052;-38
2023/05/26 11:18:56;;;;;;;7.45;1.35;;;19.10;99.90;;;;;;4909795;29;20044;-37
2023/05/26 11:21:31;;;;;;;7.05;1.13;;;19.10;99.90;;;;;;4905904;29;20051;-37
2023/05/26 11:23:58;;;;;;;8.48;1.63;;;19.20;99.90;;;;;;4911306;29;20071;-37
2023/05/26 11:26:26;;;;;;;6.72;1.35;;;19.20;99.90;;;;;;4910420;29;20518;-37
2023/05/26 11:28:52;;;;;;;7.43;1.58;;;19.30;99.90;;;;;;4912325;29;22349;-38
2023/05/26 11:31:21;;;;;;;4.47;1.23;;;19.30;99.90;;;;;;4913610;29;20098;-37
2023/05/26 11:33:47;;;;;;;6.18;1.42;;;19.30;99.90;;;;;;4910693;29;20524;-37
2023/05/26 11:36:18;;;;;;;9.45;1.35;;;19.30;99.90;;;;;;4910025;29;20067;-38
2023/05/26 11:38:46;;;;;;;6.72;1.65;;;19.40;99.90;;;;;;4911410;29;20111;-38
2023/05/26 11:41:15;;;;;;;7.60;2.15;;;19.40;99.90;;;;;;4910756;29;20582;-38
2023/05/26 11:43:44;;;;;;;6.65;1.45;;;19.50;99.90;;;;;;4907349;29;20134;-38
2023/05/26 11:46:11;;;;;;;9.98;1.88;;;19.60;99.90;;;;;;4895579;29;20118;-37
2023/05/26 11:48:41;;;;;;;8.75;1.75;;;19.60;99.90;;;;;;4899514;29;20044;-37
2023/05/26 11:51:09;;;;;;;7.47;1.88;;;19.70;99.90;;;;;;4898825;29;20079;-37
2023/05/26 11:53:36;;;;;;;6.45;1.67;;;19.70;99.90;;;;;;4910700;29;20059;-37
2023/05/26 11:56:04;;;;;;;7.20;1.55;;;19.70;99.90;;;;;;4901956;29;20407;-37
2023/05/26 11:58:33;;;;;;;11.57;1.65;;;19.70;99.90;;;;;;4904986;29;20054;-37
2023/05/26 12:01:03;;;;;;;7.93;1.30;;;19.80;99.90;;;;;;4907710;29;20044;-37
2023/05/26 12:03:33;;;;;;;4.82;1.40;;;19.80;99.90;;;;;;4907409;29;20051;-37
2023/05/26 12:06:06;;;;;;;8.07;1.48;;;19.80;99.90;;;;;;4905405;29;20083;-37
2023/05/26 12:08:48;;;;;;;9.65;1.70;;;20.00;99.90;;;;;;4908656;29;20063;-37
2023/05/26 12:11:34;;;;;;;8.32;1.73;;;20.10;99.90;;;;;;4903738;29;21264;-36
2023/05/26 12:14:02;;;;;;;6.43;1.30;;;20.20;99.90;;;;;;4906477;29;20110;-36
2023/05/26 12:16:29;;;;;;;5.70;1.50;;;20.10;99.90;;;;;;4909887;29;20090;-37
2023/05/26 12:18:57;;;;;;;6.55;1.50;;;20.30;99.90;;;;;;4908871;29;20529;-36
2023/05/26 12:21:23;;;;;;;11.52;2.13;;;20.30;99.90;;;;;;4908684;29;20135;-37
2023/05/26 12:23:50;;;;;;;9.32;1.88;;;20.50;99.90;;;;;;4898019;29;20088;-34
2023/05/26 12:26:22;;;;;;;7.35;1.55;;;20.50;99.90;;;;;;4907591;29;20590;-33
2023/05/26 12:29:06;;;;;;;6.97;1.48;;;20.60;99.90;;;;;;4901434;29;20104;-34
2023/05/26 12:31:45;;;;;;;5.32;1.50;;;20.80;99.90;;;;;;4907427;29;20117;-33
2023/05/26 12:34:17;;;;;;;10.43;1.92;;;20.90;99.90;;;;;;4905260;29;21325;-34
2023/05/26 12:36:44;;;;;;;7.60;1.88;;;20.90;99.90;;;;;;4906141;29;20071;-34
2023/05/26 12:39:10;;;;;;;6.72;1.58;;;20.80;99.90;;;;;;4907594;29;20060;-34
2023/05/26 12:41:36;;;;;;;8.68;1.58;;;20.70;99.90;;;;;;4906759;29;20391;-33
2023/05/26 12:44:02;;;;;;;7.15;2.15;;;20.70;99.90;;;;;;4904076;29;20052;-34
2023/05/26 12:46:31;;;;;;;6.80;1.60;;;20.70;99.90;;;;;;4902008;29;20056;-34
2023/05/26 12:48:57;;;;;;;4.30;1.30;;;20.90;99.90;;;;;;4896682;29;20461;-33